Caputa, SD (57725)

8:38 PM MDT on May 29, 2017 (GMT -0600)
Sunset Ranch | | Change Station
Active Advisory: Frost Advisory

Elev 2963 ft 44.09 °N, 102.93 °W | Updated 23 seconds ago

Clear
Clear
56.7 °F
Feels Like 56.7 °F
N
4.0
Wind Variable Wind from WNW

Today
High -- | Low -- °F
--% Chance of Precip.
Yesterday
High -- | Low -- °F
Precip. -- in
Pressure 30.07 in
Visibility 10.0 miles
Clouds Clear
Dew Point 31 °F
Humidity 39%
Rainfall 0.00 in
Snow Depth Not available.
5:13 AM 8:24 PM
Waxing Crescent, 25% visible
METAR KRAP 300152Z 34015KT 10SM CLR 17/M02 A3009 RMK AO2 SLP181 T01671022
Pressure 30.07 in
Visibility 10.0 miles
Clouds Clear
Dew Point 31 °F
Humidity 39%
Rainfall 0.00 in
Snow Depth Not available.
5:13 AM 8:24 PM
Waxing Crescent, 25% visible
METAR KRAP 300152Z 34015KT 10SM CLR 17/M02 A3009 RMK AO2 SLP181 T01671022

Get Your Daily Forecast Email!

Thanks for signing up!

Be on the lookout for a verification email in your inbox.

You'll start receiving severe weather alerts in your inbox..

×

10-Day Weather Forecast

Almanac

Astronomy

May. 29, 2017 Rise Set
Actual Time
Civil Twilight
Nautical Twilight
Astronomical Twilight
Moon
Length of Visible Light
Length of Day
Tomorrow will be .
, % of the Moon is Illuminated

Today's Extremes

State Highs State Lows

Community

WunderPhotos

Category 6

Welcome to Category 6. This is the collective home for Weather Underground's featured writeups by Dr. Jeff Masters (right), Bob Henson (left), Chris Burt, and other regular contributors.

Nearby

Air Quality

  Air Quality AQ Index Pollutant
Not available.

Snow Depth

Station Depth Elevation

Earthquake Activity

City Distance Mag. Time & Date
Minimum magnitude displayed is 2.5.

Coastal Water Temperatures

Place Temperature

Stations

Nearby Weather Stations

Station Location Temp. Windchill Dew Point Humidity Wind Precip. Elev Updated Type
                   

Watches & Warnings

Frost Advisory
Issued: 8:04 PM MDT May. 29, 2017 – National Weather Service

... Frost advisory remains in effect from 2 am to 8 am MDT
Tuesday...

* temperatures... lows on Tuesday morning will range from 33 to 36
degrees, with the coldest temperatures in low lying areas.

* Impacts... sensitive plants may be killed if left outdoors and
uncovered.

Precautionary/preparedness actions...

A frost advisory means conditions are favorable for the formation
of frost that can kill sensitive plants.